createdAt,value
2022-12-11T00:01:18.852Z,19.90
2022-12-11T00:03:48.532Z,15.70
2022-12-11T00:06:21.428Z,18.50
2022-12-11T00:08:54.692Z,13.00
2022-12-11T00:11:23.648Z,14.30
2022-12-11T00:13:51.652Z,14.50
2022-12-11T00:16:23.808Z,16.30
2022-12-11T00:18:55.841Z,22.50
2022-12-11T00:21:23.701Z,28.70
2022-12-11T00:23:52.183Z,19.50
2022-12-11T00:26:20.163Z,15.50
2022-12-11T00:28:48.770Z,14.90
2022-12-11T00:31:18.997Z,12.40
2022-12-11T00:33:49.413Z,18.30
2022-12-11T00:36:24.355Z,11.90
2022-12-11T00:38:54.193Z,14.70
2022-12-11T00:41:22.540Z,12.10
2022-12-11T00:43:50.537Z,14.60
2022-12-11T00:46:18.981Z,13.90
2022-12-11T00:48:48.656Z,17.80
2022-12-11T00:51:18.334Z,18.90
2022-12-11T00:53:46.229Z,17.10
2022-12-11T00:56:22.355Z,14.90
2022-12-11T00:58:50.582Z,12.70
2022-12-11T01:01:23.925Z,15.30
2022-12-11T01:03:53.753Z,15.80
2022-12-11T01:06:26.538Z,16.10
2022-12-11T01:09:14.967Z,18.30
2022-12-11T01:11:44.121Z,13.80
2022-12-11T01:14:14.511Z,14.00
2022-12-11T01:16:42.492Z,15.90
2022-12-11T01:19:10.409Z,17.10
2022-12-11T01:21:38.272Z,11.80
2022-12-11T01:24:06.547Z,20.40
2022-12-11T01:26:34.648Z,19.10
2022-12-11T01:29:02.653Z,14.80
2022-12-11T01:31:30.596Z,13.50
2022-12-11T01:33:58.539Z,12.00
2022-12-11T01:36:26.600Z,13.40
2022-12-11T01:38:54.598Z,11.00
2022-12-11T01:41:22.563Z,19.50
2022-12-11T01:44:07.537Z,17.20
2022-12-11T01:46:37.050Z,16.40
2022-12-11T01:49:11.268Z,17.20
2022-12-11T01:52:15.849Z,21.60
2022-12-11T01:54:43.927Z,19.40
2022-12-11T01:57:14.679Z,22.70
2022-12-11T01:59:46.640Z,20.40
2022-12-11T02:02:22.621Z,19.70
2022-12-11T02:04:50.599Z,24.00
2022-12-11T02:07:18.532Z,23.90
2022-12-11T02:09:48.605Z,21.70
2022-12-11T02:12:34.035Z,20.90
2022-12-11T02:15:41.729Z,20.00
2022-12-11T02:18:40.012Z,20.00
2022-12-11T02:21:25.090Z,19.10
2022-12-11T02:24:14.023Z,16.20
2022-12-11T02:26:59.831Z,15.80
2022-12-11T02:29:42.578Z,14.80
2022-12-11T02:32:32.319Z,13.70
2022-12-11T02:35:35.726Z,15.10
2022-12-11T02:38:10.998Z,20.00
2022-12-11T02:40:42.608Z,18.50
2022-12-11T02:43:14.791Z,19.90
2022-12-11T02:45:46.455Z,24.20
2022-12-11T02:48:17.169Z,21.80
2022-12-11T02:50:50.519Z,24.90
2022-12-11T02:53:24.518Z,25.30
2022-12-11T02:56:06.838Z,25.90
2022-12-11T02:58:40.070Z,19.30
2022-12-11T03:01:08.485Z,22.50
2022-12-11T03:03:36.461Z,21.10
2022-12-11T03:06:04.556Z,23.30
2022-12-11T03:08:32.897Z,23.50
2022-12-11T03:11:00.923Z,22.80
2022-12-11T03:13:29.003Z,19.40
2022-12-11T03:16:15.532Z,21.70
2022-12-11T03:19:41.608Z,22.90
2022-12-11T03:22:41.791Z,24.70
2022-12-11T03:25:18.124Z,16.70
2022-12-11T03:27:58.714Z,19.70
2022-12-11T03:30:31.253Z,16.80
2022-12-11T03:33:09.746Z,18.50
2022-12-11T03:35:45.686Z,20.00
2022-12-11T03:38:21.331Z,17.80
2022-12-11T03:40:56.432Z,18.20
2022-12-11T03:43:26.489Z,18.10
2022-12-11T03:45:55.484Z,15.60
2022-12-11T03:48:27.341Z,16.20
2022-12-11T03:50:56.197Z,15.30
2022-12-11T03:53:27.260Z,16.00
2022-12-11T03:55:59.348Z,16.40
2022-12-11T03:58:27.410Z,15.20
2022-12-11T04:00:55.340Z,15.70
2022-12-11T04:03:23.281Z,14.50
2022-12-11T04:05:57.092Z,15.50
2022-12-11T04:08:25.281Z,15.00
2022-12-11T04:11:13.328Z,15.50
2022-12-11T04:13:42.207Z,14.50
2022-12-11T04:16:10.214Z,15.90
2022-12-11T04:18:56.856Z,15.60
2022-12-11T04:21:43.452Z,14.70
2022-12-11T04:24:17.223Z,13.80
2022-12-11T04:26:47.392Z,12.10
2022-12-11T04:29:15.559Z,11.60
2022-12-11T04:31:43.633Z,14.30
2022-12-11T04:34:11.901Z,12.20
2022-12-11T04:36:39.809Z,11.50
2022-12-11T04:39:07.845Z,16.20
2022-12-11T04:41:37.389Z,16.30
2022-12-11T04:44:05.928Z,17.00
2022-12-11T04:46:35.240Z,16.30
2022-12-11T04:49:03.361Z,15.90
2022-12-11T04:51:31.428Z,17.10
2022-12-11T04:53:59.884Z,18.90
2022-12-11T04:56:27.808Z,16.30
2022-12-11T04:58:55.640Z,15.30
2022-12-11T05:01:23.907Z,16.40
2022-12-11T05:03:51.855Z,14.80
2022-12-11T05:06:19.732Z,14.70
2022-12-11T05:08:47.635Z,16.60
2022-12-11T05:11:16.873Z,15.80
2022-12-11T05:13:45.723Z,14.90
2022-12-11T05:16:17.016Z,15.40
2022-12-11T05:18:45.144Z,17.30
2022-12-11T05:21:15.619Z,16.10
2022-12-11T05:23:43.819Z,17.10
2022-12-11T05:26:17.072Z,17.10
2022-12-11T05:28:46.925Z,16.10
2022-12-11T05:31:19.269Z,14.90
2022-12-11T05:33:50.404Z,16.50
2022-12-11T05:36:33.298Z,16.40
2022-12-11T05:39:04.082Z,16.60
2022-12-11T05:41:33.032Z,16.00
2022-12-11T05:44:00.958Z,15.50
2022-12-11T05:46:31.311Z,16.20
2022-12-11T05:49:02.485Z,16.40
2022-12-11T05:51:31.098Z,15.90
2022-12-11T05:53:59.334Z,12.10
2022-12-11T05:56:31.623Z,7.70
2022-12-11T05:59:01.745Z,10.60
2022-12-11T06:01:40.888Z,9.70
2022-12-11T06:04:11.845Z,8.70
2022-12-11T06:06:40.775Z,7.80
2022-12-11T06:09:08.706Z,7.90
2022-12-11T06:11:36.625Z,8.00
2022-12-11T06:14:04.997Z,8.60
2022-12-11T06:16:33.233Z,7.10
2022-12-11T06:19:01.319Z,8.00
2022-12-11T06:21:33.087Z,5.40
2022-12-11T06:24:04.112Z,4.20
2022-12-11T06:26:33.089Z,3.20
2022-12-11T06:29:01.015Z,2.50
2022-12-11T06:31:29.114Z,2.40
2022-12-11T06:33:57.109Z,2.60
2022-12-11T06:36:25.601Z,2.70
2022-12-11T06:38:55.500Z,3.10
2022-12-11T06:41:23.510Z,2.80
2022-12-11T06:43:51.505Z,2.80
2022-12-11T06:46:20.619Z,2.20
2022-12-11T06:48:49.720Z,2.60
2022-12-11T06:51:22.514Z,2.50
2022-12-11T06:53:56.527Z,3.00
2022-12-11T06:56:25.421Z,2.20
2022-12-11T06:58:53.722Z,2.50
2022-12-11T07:01:28.360Z,2.40
2022-12-11T07:03:59.282Z,2.90
2022-12-11T07:06:28.955Z,2.50
2022-12-11T07:08:57.333Z,2.60
2022-12-11T07:11:25.229Z,2.80
2022-12-11T07:13:53.062Z,2.60
2022-12-11T07:16:21.646Z,2.60
2022-12-11T07:18:51.567Z,2.80
2022-12-11T07:21:21.281Z,2.60
2022-12-11T07:23:50.492Z,2.10
2022-12-11T07:26:22.244Z,2.00
2022-12-11T07:28:50.497Z,2.10
2022-12-11T07:31:25.178Z,2.30
2022-12-11T07:33:55.974Z,2.20
2022-12-11T07:36:24.974Z,2.00
2022-12-11T07:38:54.131Z,1.70
2022-12-11T07:41:23.416Z,2.10
2022-12-11T07:43:51.462Z,3.10
2022-12-11T07:46:25.129Z,2.80
2022-12-11T07:48:53.374Z,3.10
2022-12-11T07:51:28.586Z,3.60
2022-12-11T07:54:02.877Z,3.40
2022-12-11T07:56:32.014Z,2.90
2022-12-11T07:59:02.760Z,3.10
2022-12-11T08:01:37.036Z,2.60
2022-12-11T08:04:14.154Z,2.70
2022-12-11T08:06:43.407Z,2.90
2022-12-11T08:09:20.892Z,3.10
2022-12-11T08:11:51.121Z,3.20
2022-12-11T08:14:20.415Z,2.90
2022-12-11T08:16:49.924Z,3.50
2022-12-11T08:19:18.441Z,2.80
2022-12-11T08:21:47.069Z,5.20
2022-12-11T08:24:20.334Z,4.40
2022-12-11T08:26:48.862Z,6.30
2022-12-11T08:29:16.922Z,5.80
2022-12-11T08:31:44.871Z,5.40
2022-12-11T08:34:14.327Z,5.60
2022-12-11T08:36:42.521Z,5.80
2022-12-11T08:39:10.507Z,5.60
2022-12-11T08:41:38.364Z,4.20
2022-12-11T08:44:16.271Z,7.50
2022-12-11T08:46:45.970Z,8.10
2022-12-11T08:49:15.385Z,9.00
2022-12-11T08:51:43.367Z,7.50
2022-12-11T08:54:11.917Z,8.30
2022-12-11T08:56:40.176Z,6.80
2022-12-11T08:59:08.375Z,7.30
2022-12-11T09:01:37.852Z,7.30
2022-12-11T09:04:06.340Z,7.20
2022-12-11T09:06:34.269Z,8.20
2022-12-11T09:09:04.736Z,7.40
2022-12-11T09:11:37.832Z,6.90
2022-12-11T09:14:07.831Z,6.80
2022-12-11T09:16:40.818Z,6.00
2022-12-11T09:19:14.886Z,7.00
2022-12-11T09:21:46.328Z,5.30
2022-12-11T09:24:16.315Z,7.30
2022-12-11T09:26:44.306Z,7.20
2022-12-11T09:29:12.747Z,7.70
2022-12-11T09:31:41.192Z,6.60
2022-12-11T09:34:12.851Z,7.20
2022-12-11T09:36:45.205Z,7.10
2022-12-11T09:39:18.173Z,5.70
2022-12-11T09:42:33.546Z,5.60
2022-12-11T09:45:04.629Z,6.30
2022-12-11T09:47:42.829Z,6.60
2022-12-11T09:50:23.764Z,8.80
2022-12-11T09:53:20.500Z,9.00
2022-12-11T09:56:01.589Z,9.60
2022-12-11T09:58:41.510Z,8.70
2022-12-11T10:01:22.521Z,9.80
2022-12-11T10:04:40.040Z,9.80
2022-12-11T10:07:38.366Z,8.20
2022-12-11T10:10:23.452Z,9.10
2022-12-11T10:13:02.104Z,11.50
2022-12-11T10:16:01.359Z,11.40
2022-12-11T10:18:31.405Z,10.10
2022-12-11T10:21:03.520Z,9.40
2022-12-11T10:23:42.095Z,6.90
2022-12-11T10:26:19.881Z,5.40
2022-12-11T10:28:48.904Z,4.30
2022-12-11T10:31:28.775Z,3.30
2022-12-11T10:34:12.315Z,3.40
2022-12-11T10:36:43.511Z,3.50
2022-12-11T10:39:18.485Z,3.40
2022-12-11T10:41:49.972Z,3.40
2022-12-11T10:44:31.197Z,3.10
2022-12-11T10:47:18.569Z,3.50
2022-12-11T10:50:02.669Z,3.70
2022-12-11T10:52:44.140Z,3.70
2022-12-11T10:55:32.229Z,3.60
2022-12-11T10:58:22.523Z,3.60
2022-12-11T11:01:21.641Z,2.80
2022-12-11T11:03:57.682Z,2.80
2022-12-11T11:06:27.404Z,2.40
2022-12-11T11:08:59.681Z,2.90
2022-12-11T11:11:39.499Z,2.30
2022-12-11T11:14:20.690Z,2.10
2022-12-11T11:16:52.557Z,2.10
2022-12-11T11:19:28.026Z,2.50
2022-12-11T11:22:09.502Z,2.60
2022-12-11T11:24:44.396Z,3.00
2022-12-11T11:27:28.526Z,2.40
2022-12-11T11:30:02.067Z,2.50
2022-12-11T11:32:41.196Z,2.80
2022-12-11T11:35:17.162Z,2.90
2022-12-11T11:37:55.934Z,3.00
2022-12-11T11:40:38.670Z,2.60
2022-12-11T11:43:44.709Z,3.20
2022-12-11T11:46:23.905Z,1.40
2022-12-11T11:49:00.617Z,2.90
2022-12-11T11:52:03.446Z,2.60
2022-12-11T11:54:43.262Z,2.30
2022-12-11T11:57:37.869Z,1.90
2022-12-11T12:00:23.817Z,1.70
2022-12-11T12:03:14.157Z,1.90
2022-12-11T12:06:15.325Z,1.90
2022-12-11T12:09:09.381Z,2.00
2022-12-11T12:11:56.061Z,1.80
2022-12-11T12:15:02.100Z,1.90
2022-12-11T12:18:02.249Z,1.80
2022-12-11T12:21:12.632Z,1.60
2022-12-11T12:23:57.123Z,1.40
2022-12-11T12:26:37.576Z,2.30
2022-12-11T12:29:32.063Z,1.50
2022-12-11T12:32:14.431Z,1.30
2022-12-11T12:35:14.922Z,1.00
2022-12-11T12:37:58.006Z,1.20
2022-12-11T12:40:47.458Z,1.40
2022-12-11T12:43:36.397Z,1.70
2022-12-11T12:46:09.630Z,2.00
2022-12-11T12:48:38.240Z,2.00
2022-12-11T12:51:07.233Z,2.10
2022-12-11T12:53:37.453Z,2.50
2022-12-11T12:56:07.428Z,2.00
2022-12-11T12:58:35.631Z,1.30
2022-12-11T13:01:26.327Z,1.80
2022-12-11T13:04:05.898Z,1.80
2022-12-11T13:06:45.461Z,2.10
2022-12-11T13:09:22.495Z,1.50
2022-12-11T13:11:54.099Z,1.70
2022-12-11T13:14:32.727Z,2.00
2022-12-11T13:17:32.504Z,1.50
2022-12-11T13:20:23.586Z,1.50
2022-12-11T13:23:19.710Z,1.90
2022-12-11T13:25:51.071Z,2.30
2022-12-11T13:28:30.119Z,2.40
2022-12-11T13:31:16.533Z,2.70
2022-12-11T13:33:51.044Z,1.60
2022-12-11T13:36:31.503Z,2.40
2022-12-11T13:39:06.651Z,2.00
2022-12-11T13:41:41.051Z,1.90
2022-12-11T13:44:26.540Z,1.60
2022-12-11T13:47:02.280Z,1.90
2022-12-11T13:49:37.333Z,2.00
2022-12-11T13:52:07.590Z,1.70
2022-12-11T13:54:36.588Z,2.20
2022-12-11T13:57:21.498Z,1.90
2022-12-11T13:59:55.748Z,2.40
2022-12-11T14:02:35.717Z,1.60
2022-12-11T14:05:10.051Z,1.50
2022-12-11T14:07:48.618Z,1.30
2022-12-11T14:10:29.449Z,1.70
2022-12-11T14:13:33.527Z,1.70
2022-12-11T14:16:02.994Z,1.60
2022-12-11T14:18:35.512Z,1.40
2022-12-11T14:21:07.401Z,1.60
2022-12-11T14:23:41.094Z,1.90
2022-12-11T14:26:26.920Z,1.70
2022-12-11T14:28:56.153Z,1.40
2022-12-11T14:31:44.599Z,1.70
2022-12-11T14:34:27.724Z,2.00
2022-12-11T14:36:57.094Z,1.60
2022-12-11T14:39:54.593Z,2.30
2022-12-11T14:42:29.948Z,1.90
2022-12-11T14:45:23.164Z,1.70
2022-12-11T14:47:55.044Z,2.20
2022-12-11T14:50:38.180Z,2.20
2022-12-11T14:53:23.692Z,1.60
2022-12-11T14:55:53.183Z,1.90
2022-12-11T14:58:27.173Z,1.70
2022-12-11T15:01:00.953Z,1.30
2022-12-11T15:03:41.110Z,1.50
2022-12-11T15:06:29.107Z,1.50
2022-12-11T15:08:57.511Z,1.50
2022-12-11T15:11:33.000Z,1.00
2022-12-11T15:14:05.668Z,1.70
2022-12-11T15:16:41.081Z,1.70
2022-12-11T15:19:31.143Z,1.10
2022-12-11T15:22:09.828Z,1.60
2022-12-11T15:24:43.929Z,1.70
2022-12-11T15:27:37.727Z,1.70
2022-12-11T15:30:18.209Z,1.70
2022-12-11T15:32:46.608Z,1.60
2022-12-11T15:35:25.633Z,1.80
2022-12-11T15:37:56.587Z,1.90
2022-12-11T15:40:25.686Z,1.70
2022-12-11T15:42:55.223Z,1.70
2022-12-11T15:45:28.648Z,1.60
2022-12-11T15:47:57.720Z,1.50
2022-12-11T15:50:28.914Z,2.00
2022-12-11T15:52:57.831Z,2.00
2022-12-11T15:55:29.829Z,1.80
2022-12-11T15:58:07.336Z,1.70
2022-12-11T16:00:35.934Z,2.30
2022-12-11T16:03:04.023Z,2.00
2022-12-11T16:05:32.093Z,1.90
2022-12-11T16:08:00.128Z,2.10
2022-12-11T16:10:28.204Z,2.10
2022-12-11T16:12:59.947Z,1.70
2022-12-11T16:15:27.817Z,1.60
2022-12-11T16:18:11.961Z,1.20
2022-12-11T16:20:42.968Z,1.30
2022-12-11T16:23:13.427Z,1.30
2022-12-11T16:25:46.320Z,0.90
2022-12-11T16:28:18.737Z,1.20
2022-12-11T16:30:47.464Z,1.60
2022-12-11T16:33:17.968Z,1.30
2022-12-11T16:35:46.189Z,1.10
2022-12-11T16:38:15.967Z,1.20
2022-12-11T16:40:46.845Z,1.10
2022-12-11T16:43:15.013Z,1.20
2022-12-11T16:45:43.403Z,1.10
2022-12-11T16:48:11.464Z,0.70
2022-12-11T16:50:40.455Z,0.90
2022-12-11T16:53:08.415Z,0.70
2022-12-11T16:55:36.286Z,1.00
2022-12-11T16:58:09.745Z,0.90
2022-12-11T17:00:39.181Z,1.00
2022-12-11T17:03:07.170Z,1.00
2022-12-11T17:05:36.383Z,0.80
2022-12-11T17:08:04.394Z,0.80
2022-12-11T17:10:32.448Z,0.70
2022-12-11T17:13:00.527Z,0.80
2022-12-11T17:15:28.440Z,1.00
2022-12-11T17:18:12.788Z,0.90
2022-12-11T17:23:42.446Z,0.90
2022-12-11T17:25:08.733Z,1.00
2022-12-11T17:27:36.698Z,0.50
2022-12-11T17:30:08.261Z,0.90
2022-12-11T17:32:36.419Z,0.70
2022-12-11T17:35:04.717Z,1.20
2022-12-11T17:37:35.400Z,0.70
2022-12-11T17:40:05.821Z,1.00
2022-12-11T17:42:34.072Z,0.80
2022-12-11T17:45:02.337Z,1.10
2022-12-11T17:47:30.240Z,1.30
2022-12-11T17:49:58.211Z,1.10
2022-12-11T17:52:32.341Z,1.40
2022-12-11T17:55:03.263Z,1.20
2022-12-11T17:57:31.924Z,0.70
2022-12-11T18:00:00.103Z,0.90
2022-12-11T18:02:34.712Z,0.90
2022-12-11T18:05:05.913Z,1.10
2022-12-11T18:07:38.027Z,1.30
2022-12-11T18:10:08.311Z,1.30
2022-12-11T18:12:36.499Z,1.10
2022-12-11T18:15:14.528Z,1.30
2022-12-11T18:17:42.618Z,1.40
2022-12-11T18:20:16.800Z,1.40
2022-12-11T18:22:44.722Z,1.00
2022-12-11T18:25:13.013Z,1.40
2022-12-11T18:27:41.250Z,1.20
2022-12-11T18:30:12.898Z,0.80
2022-12-11T18:32:43.056Z,0.80
2022-12-11T18:35:12.188Z,1.00
2022-12-11T18:37:41.401Z,0.80
2022-12-11T18:40:14.354Z,1.00
2022-12-11T18:42:42.347Z,1.10
2022-12-11T18:45:11.035Z,0.70
2022-12-11T18:47:39.312Z,0.60
2022-12-11T18:50:08.382Z,0.80
2022-12-11T18:52:36.504Z,0.90
2022-12-11T18:55:05.211Z,0.80
2022-12-11T18:57:33.515Z,0.70
2022-12-11T19:00:07.517Z,0.90
2022-12-11T19:02:36.192Z,0.90
2022-12-11T19:05:05.090Z,0.90
2022-12-11T19:07:33.258Z,0.80
2022-12-11T19:10:01.341Z,0.70
2022-12-11T19:12:29.205Z,1.10
2022-12-11T19:14:57.114Z,1.20
2022-12-11T19:17:25.072Z,0.90
2022-12-11T19:19:53.458Z,0.90
2022-12-11T19:22:21.430Z,1.20
2022-12-11T19:24:49.317Z,0.80
2022-12-11T19:27:17.528Z,1.10
2022-12-11T19:29:45.362Z,1.00
2022-12-11T19:32:13.300Z,0.90
2022-12-11T19:34:41.427Z,0.80
2022-12-11T19:37:09.568Z,1.10
2022-12-11T19:39:41.142Z,0.80
2022-12-11T19:42:09.102Z,0.90
2022-12-11T19:44:39.745Z,0.80
2022-12-11T19:47:07.768Z,1.00
2022-12-11T19:49:35.679Z,0.80
2022-12-11T19:52:04.925Z,0.90
2022-12-11T19:54:32.972Z,0.50
2022-12-11T19:57:00.944Z,0.70
2022-12-11T19:59:28.871Z,0.80
2022-12-11T20:01:56.873Z,0.80
2022-12-11T20:04:24.796Z,0.70
2022-12-11T20:06:52.750Z,1.00
2022-12-11T20:09:20.747Z,0.80
2022-12-11T20:11:48.896Z,0.80
2022-12-11T20:14:26.180Z,0.90
2022-12-11T20:17:13.826Z,0.90
2022-12-11T20:19:43.226Z,0.90
2022-12-11T20:22:11.987Z,1.20
2022-12-11T20:24:40.096Z,1.10
2022-12-11T20:27:09.010Z,0.80
2022-12-11T20:29:38.034Z,0.90
2022-12-11T20:32:06.113Z,1.00
2022-12-11T20:34:34.023Z,0.70
2022-12-11T20:37:01.900Z,1.10
2022-12-11T20:39:30.797Z,0.80
2022-12-11T20:41:58.782Z,1.00
2022-12-11T20:44:26.656Z,1.00
2022-12-11T20:46:54.860Z,0.80
2022-12-11T20:49:22.732Z,0.80
2022-12-11T20:51:50.666Z,0.80
2022-12-11T20:54:18.744Z,0.70
2022-12-11T20:56:47.117Z,0.80
2022-12-11T20:59:15.719Z,0.80
2022-12-11T21:01:44.597Z,0.80
2022-12-11T21:04:12.568Z,1.10
2022-12-11T21:06:42.165Z,1.00
2022-12-11T21:09:17.847Z,0.90
2022-12-11T21:11:46.161Z,0.90
2022-12-11T21:14:15.922Z,1.00
2022-12-11T21:16:44.505Z,0.60
2022-12-11T21:19:17.107Z,0.60
2022-12-11T21:21:46.457Z,0.80
2022-12-11T21:24:21.415Z,0.70
2022-12-11T21:26:50.124Z,1.00
2022-12-11T21:29:18.404Z,0.60
2022-12-11T21:31:46.283Z,0.80
2022-12-11T21:34:22.061Z,0.80
2022-12-11T21:36:57.079Z,0.80
2022-12-11T21:39:28.672Z,0.70
2022-12-11T21:41:58.303Z,0.90
2022-12-11T21:45:58.882Z,0.90
2022-12-11T21:47:14.249Z,0.80
2022-12-11T21:49:42.271Z,1.30
2022-12-11T21:52:10.954Z,1.10
2022-12-11T21:54:39.096Z,1.10
2022-12-11T21:57:07.362Z,0.80
2022-12-11T21:59:35.930Z,0.80
2022-12-11T22:02:04.679Z,0.70
2022-12-11T22:04:37.950Z,0.60
2022-12-11T22:07:05.945Z,0.70
2022-12-11T22:09:33.891Z,0.80
2022-12-11T22:12:01.903Z,0.60
2022-12-11T22:14:31.510Z,0.70
2022-12-11T22:16:59.715Z,0.60
2022-12-11T22:19:32.322Z,0.90
2022-12-11T22:22:00.785Z,0.90
2022-12-11T22:24:28.757Z,0.60
2022-12-11T22:26:56.697Z,0.80
2022-12-11T22:29:24.720Z,0.50
2022-12-11T22:31:53.555Z,0.80
2022-12-11T22:34:22.474Z,0.80
2022-12-11T22:36:51.179Z,0.70
2022-12-11T22:39:19.113Z,0.50
2022-12-11T22:41:46.987Z,0.80
2022-12-11T22:44:21.457Z,0.50
2022-12-11T22:46:50.440Z,0.60
2022-12-11T22:49:20.482Z,0.70
2022-12-11T22:51:49.260Z,0.60
2022-12-11T22:54:17.153Z,0.50
2022-12-11T22:56:45.140Z,0.80
2022-12-11T22:59:13.060Z,0.80
2022-12-11T23:01:41.189Z,0.70
2022-12-11T23:04:09.030Z,0.70
2022-12-11T23:06:36.945Z,0.40
2022-12-11T23:09:04.889Z,0.30
2022-12-11T23:11:37.551Z,0.50
2022-12-11T23:14:09.140Z,0.60
2022-12-11T23:16:37.195Z,0.50
2022-12-11T23:19:05.124Z,0.40
2022-12-11T23:21:33.961Z,0.20
2022-12-11T23:24:02.968Z,0.40
2022-12-11T23:26:31.757Z,0.40
2022-12-11T23:29:00.121Z,0.50
2022-12-11T23:31:30.285Z,0.60
2022-12-11T23:33:58.535Z,0.30
2022-12-11T23:36:28.570Z,0.40
2022-12-11T23:38:56.565Z,0.30
2022-12-11T23:41:24.837Z,0.20
2022-12-11T23:43:52.835Z,0.40
2022-12-11T23:46:24.219Z,0.10
2022-12-11T23:48:53.471Z,0.40
2022-12-11T23:51:24.753Z,0.50
2022-12-11T23:53:54.155Z,0.30
2022-12-11T23:56:29.337Z,0.40
2022-12-11T23:58:58.047Z,0.30
